createdAt,value
2023-03-27T00:02:49.744Z,8.71
2023-03-27T00:08:12.356Z,8.86
2023-03-27T00:13:34.579Z,8.72
2023-03-27T00:18:56.432Z,8.63
2023-03-27T00:24:18.116Z,8.60
2023-03-27T00:29:39.879Z,8.47
2023-03-27T00:35:01.960Z,8.34
2023-03-27T00:40:23.737Z,8.36
2023-03-27T00:45:47.058Z,8.39
2023-03-27T00:51:09.483Z,8.16
2023-03-27T00:56:33.659Z,8.05
2023-03-27T01:01:56.023Z,7.96
2023-03-27T01:07:17.922Z,7.86
2023-03-27T01:12:49.383Z,7.92
2023-03-27T01:18:36.029Z,7.93
2023-03-27T01:24:04.043Z,7.99
2023-03-27T01:29:38.579Z,7.74
2023-03-27T01:35:37.595Z,7.83
2023-03-27T01:41:25.771Z,7.72
2023-03-27T01:46:56.944Z,7.63
2023-03-27T01:52:24.907Z,7.69
2023-03-27T01:58:00.437Z,7.56
2023-03-27T02:03:31.758Z,7.38
2023-03-27T02:08:56.500Z,7.35
2023-03-27T02:14:23.562Z,7.22
2023-03-27T02:20:24.115Z,7.18
2023-03-27T02:25:46.724Z,7.05
2023-03-27T02:31:57.167Z,7.03
2023-03-27T02:37:50.887Z,6.99
2023-03-27T02:43:19.830Z,6.82
2023-03-27T02:48:51.503Z,6.60
2023-03-27T02:54:17.312Z,6.81
2023-03-27T02:59:45.334Z,6.58
2023-03-27T03:05:17.904Z,6.75
2023-03-27T03:10:44.787Z,6.31
2023-03-27T03:16:08.700Z,6.31
2023-03-27T03:21:31.952Z,6.43
2023-03-27T03:26:53.745Z,6.47
2023-03-27T03:32:15.980Z,6.49
2023-03-27T03:37:39.042Z,6.34
2023-03-27T03:43:01.089Z,6.30
2023-03-27T03:48:23.619Z,6.34
2023-03-27T03:53:45.374Z,6.29
2023-03-27T03:59:08.799Z,5.87
2023-03-27T04:04:32.037Z,6.07
2023-03-27T04:09:53.856Z,6.27
2023-03-27T04:15:16.520Z,5.78
2023-03-27T04:20:38.328Z,5.82
2023-03-27T04:26:01.954Z,5.91
2023-03-27T04:31:23.949Z,5.90
2023-03-27T04:36:46.137Z,5.94
2023-03-27T04:42:08.416Z,5.69
2023-03-27T04:47:30.163Z,5.74
2023-03-27T04:52:53.283Z,5.62
2023-03-27T04:58:15.571Z,5.63
2023-03-27T05:03:37.359Z,5.41
2023-03-27T05:08:59.732Z,5.34
2023-03-27T05:14:23.393Z,5.53
2023-03-27T05:19:45.244Z,5.44
2023-03-27T05:25:08.518Z,5.25
2023-03-27T05:30:30.409Z,4.85
2023-03-27T05:35:52.831Z,4.86
2023-03-27T05:41:16.128Z,5.17
2023-03-27T05:46:39.145Z,5.29
2023-03-27T05:52:01.151Z,4.96
2023-03-27T05:57:23.186Z,5.17
2023-03-27T06:02:45.173Z,4.91
2023-03-27T06:08:11.682Z,4.92
2023-03-27T06:13:33.626Z,4.74
2023-03-27T06:18:56.062Z,4.77
2023-03-27T06:24:17.850Z,4.92
2023-03-27T06:29:40.424Z,4.86
2023-03-27T06:35:05.264Z,5.04
2023-03-27T06:40:28.879Z,4.85
2023-03-27T06:45:51.186Z,5.01
2023-03-27T06:51:13.019Z,4.57
2023-03-27T06:56:34.823Z,4.59
2023-03-27T07:01:56.745Z,4.59
2023-03-27T07:07:18.464Z,4.77
2023-03-27T07:12:41.390Z,4.72
2023-03-27T07:18:06.323Z,4.77
2023-03-27T07:23:28.159Z,4.75
2023-03-27T07:28:51.673Z,4.91
2023-03-27T07:34:13.512Z,4.92
2023-03-27T07:39:35.384Z,4.95
2023-03-27T07:44:57.116Z,5.11
2023-03-27T07:50:21.632Z,5.10
2023-03-27T07:55:43.355Z,5.14
2023-03-27T08:01:06.211Z,5.10
2023-03-27T08:06:28.119Z,5.09
2023-03-27T08:11:50.591Z,5.10
2023-03-27T08:17:16.215Z,5.36
2023-03-27T08:22:39.488Z,5.22
2023-03-27T08:28:04.725Z,5.24
2023-03-27T08:33:29.257Z,5.14
2023-03-27T08:38:51.482Z,5.14
2023-03-27T08:44:15.997Z,5.36
2023-03-27T08:49:47.247Z,5.41
2023-03-27T08:55:24.566Z,5.56
2023-03-27T09:01:00.794Z,5.57
2023-03-27T09:06:31.224Z,5.67
2023-03-27T09:12:09.933Z,5.53
2023-03-27T09:17:40.358Z,5.69
2023-03-27T09:23:13.661Z,5.57
2023-03-27T09:28:50.681Z,5.86
2023-03-27T09:34:16.926Z,5.85
2023-03-27T09:39:42.736Z,6.03
2023-03-27T09:45:07.903Z,6.08
2023-03-27T09:50:41.337Z,6.25
2023-03-27T09:56:06.300Z,6.29
2023-03-27T10:01:34.537Z,6.06
2023-03-27T10:07:01.483Z,6.35
2023-03-27T10:12:23.269Z,6.46
2023-03-27T10:17:48.893Z,6.64
2023-03-27T10:23:24.244Z,6.67
2023-03-27T10:28:51.640Z,6.61
2023-03-27T10:34:43.357Z,6.81
2023-03-27T10:40:09.281Z,7.45
2023-03-27T10:45:32.530Z,7.45
2023-03-27T10:50:58.437Z,7.39
2023-03-27T10:56:31.682Z,7.48
2023-03-27T11:01:58.318Z,7.90
2023-03-27T11:07:28.421Z,8.35
2023-03-27T11:13:01.766Z,8.76
2023-03-27T11:18:28.582Z,8.48
2023-03-27T11:23:57.767Z,8.07
2023-03-27T11:29:28.317Z,8.40
2023-03-27T11:34:58.635Z,8.26
2023-03-27T11:40:30.325Z,7.75
2023-03-27T11:46:19.576Z,7.60
2023-03-27T11:52:00.484Z,7.80
2023-03-27T11:57:25.917Z,8.24
2023-03-27T12:03:15.766Z,8.69
2023-03-27T12:09:25.101Z,9.00
2023-03-27T12:14:54.180Z,9.13
2023-03-27T12:20:52.379Z,9.26
2023-03-27T12:26:50.258Z,9.69
2023-03-27T12:32:48.801Z,9.67
2023-03-27T12:38:29.415Z,8.68
2023-03-27T12:43:57.445Z,8.57
2023-03-27T12:49:19.210Z,9.15
2023-03-27T12:55:09.386Z,9.20
2023-03-27T13:00:32.077Z,8.93
2023-03-27T13:06:12.823Z,9.05
2023-03-27T13:12:13.701Z,8.78
2023-03-27T13:18:00.634Z,8.20
2023-03-27T13:23:48.679Z,8.27
2023-03-27T13:29:20.742Z,7.80
2023-03-27T13:34:59.686Z,7.36
2023-03-27T13:40:28.598Z,7.23
2023-03-27T13:46:00.065Z,7.06
2023-03-27T13:51:47.880Z,6.75
2023-03-27T13:57:09.607Z,6.70
2023-03-27T14:02:59.889Z,6.70
2023-03-27T14:08:58.662Z,6.59
2023-03-27T14:14:30.888Z,7.04
2023-03-27T14:20:07.000Z,7.31
2023-03-27T14:25:34.303Z,7.39
2023-03-27T14:30:56.136Z,7.92
2023-03-27T14:36:22.570Z,7.82
2023-03-27T14:41:56.865Z,7.62
2023-03-27T14:47:21.821Z,7.53
2023-03-27T14:52:44.168Z,7.47
2023-03-27T14:58:13.575Z,7.82
2023-03-27T15:03:38.100Z,7.59
2023-03-27T15:09:05.429Z,7.65
2023-03-27T15:14:29.404Z,7.55
2023-03-27T15:20:01.906Z,7.33
2023-03-27T15:25:34.745Z,7.31
2023-03-27T15:31:00.669Z,7.36
2023-03-27T15:36:28.555Z,7.13
2023-03-27T15:41:52.645Z,7.14
2023-03-27T15:47:30.018Z,6.75
2023-03-27T15:52:53.670Z,6.49
2023-03-27T15:58:23.384Z,6.58
2023-03-27T16:03:45.642Z,6.69
2023-03-27T16:09:22.137Z,6.62
2023-03-27T16:14:53.353Z,6.78
2023-03-27T16:20:15.979Z,6.72
2023-03-27T16:25:38.166Z,6.59
2023-03-27T16:31:10.418Z,6.82
2023-03-27T16:36:35.603Z,6.54
2023-03-27T16:41:57.734Z,6.42
2023-03-27T16:47:20.500Z,6.35
2023-03-27T16:52:42.276Z,6.32
2023-03-27T16:58:03.997Z,6.41
2023-03-27T17:03:25.934Z,6.53
2023-03-27T17:08:58.140Z,6.22
2023-03-27T17:14:20.925Z,6.37
2023-03-27T17:19:42.958Z,6.24
2023-03-27T17:25:05.927Z,6.04
2023-03-27T17:30:38.182Z,6.11
2023-03-27T17:36:08.579Z,6.22
2023-03-27T17:41:30.491Z,6.10
2023-03-27T17:46:52.286Z,5.99
2023-03-27T17:52:14.225Z,5.84
2023-03-27T17:57:39.350Z,5.82
2023-03-27T18:03:01.763Z,5.84
2023-03-27T18:08:23.642Z,5.72
2023-03-27T18:13:53.536Z,5.87
2023-03-27T18:19:16.210Z,5.85
2023-03-27T18:24:38.059Z,5.76
2023-03-27T18:29:59.817Z,5.95
2023-03-27T18:35:21.853Z,5.59
2023-03-27T18:40:43.586Z,5.15
2023-03-27T18:46:07.249Z,5.18
2023-03-27T18:51:31.649Z,5.75
2023-03-27T18:56:53.916Z,5.74
2023-03-27T19:02:17.270Z,5.80
2023-03-27T19:07:44.836Z,5.84
2023-03-27T19:13:07.153Z,5.86
2023-03-27T19:18:30.095Z,5.96
2023-03-27T19:23:52.179Z,6.12
2023-03-27T19:29:13.973Z,5.85
2023-03-27T19:34:42.474Z,5.68
2023-03-27T19:40:05.476Z,5.63
2023-03-27T19:45:27.310Z,5.54
2023-03-27T19:50:50.811Z,5.51
2023-03-27T19:56:12.721Z,5.58
2023-03-27T20:01:37.470Z,5.41
2023-03-27T20:07:01.761Z,5.50
2023-03-27T20:12:24.874Z,5.25
2023-03-27T20:17:46.875Z,5.44
2023-03-27T20:23:09.948Z,5.27
2023-03-27T20:28:31.674Z,5.30
2023-03-27T20:33:53.487Z,5.21
2023-03-27T20:39:15.259Z,5.36
2023-03-27T20:44:37.092Z,5.36
2023-03-27T20:49:59.032Z,5.59
2023-03-27T20:55:32.822Z,5.57
2023-03-27T21:00:56.398Z,5.46
2023-03-27T21:06:20.444Z,5.38
2023-03-27T21:11:42.330Z,5.17
2023-03-27T21:17:04.158Z,5.17
2023-03-27T21:22:26.046Z,5.36
2023-03-27T21:27:49.079Z,5.25
2023-03-27T21:33:11.397Z,5.06
2023-03-27T21:38:33.113Z,5.09
2023-03-27T21:43:54.848Z,5.13
2023-03-27T21:49:16.624Z,4.99
2023-03-27T21:54:38.395Z,4.69
2023-03-27T22:00:00.270Z,4.78
2023-03-27T22:05:22.001Z,4.61
2023-03-27T22:10:43.841Z,4.68
2023-03-27T22:16:13.792Z,4.84
2023-03-27T22:21:35.852Z,4.65
2023-03-27T22:26:57.658Z,4.57
2023-03-27T22:32:19.589Z,4.70
2023-03-27T22:37:41.405Z,4.70
2023-03-27T22:43:03.145Z,4.64
2023-03-27T22:48:24.852Z,4.83
2023-03-27T22:53:46.714Z,4.94
2023-03-27T22:59:08.840Z,5.07
2023-03-27T23:04:30.718Z,5.13
2023-03-27T23:09:52.482Z,5.09
2023-03-27T23:15:14.253Z,5.03
2023-03-27T23:20:36.035Z,4.96
2023-03-27T23:25:58.220Z,4.85
2023-03-27T23:31:20.690Z,4.87
2023-03-27T23:36:42.460Z,4.92
2023-03-27T23:42:04.260Z,4.76
2023-03-27T23:47:26.109Z,4.72
2023-03-27T23:52:47.857Z,4.88
2023-03-27T23:58:09.632Z,4.87
